sensor_id;sensor_type;location;lat;lon;timestamp;P1;durP1;ratioP1;P2;durP2;ratioP2
35699;SDS011;21818;51.078;12.108;2022-11-15T00:01:34;13.77;;;7.32;;
35699;SDS011;21818;51.078;12.108;2022-11-15T00:04:02;11.57;;;6.47;;
35699;SDS011;21818;51.078;12.108;2022-11-15T00:06:28;12.00;;;6.68;;
35699;SDS011;21818;51.078;12.108;2022-11-15T00:08:54;11.48;;;6.38;;
35699;SDS011;21818;51.078;12.108;2022-11-15T00:11:19;11.82;;;6.38;;
35699;SDS011;21818;51.078;12.108;2022-11-15T00:13:45;10.20;;;6.03;;
35699;SDS011;21818;51.078;12.108;2022-11-15T00:16:11;14.77;;;7.78;;
35699;SDS011;21818;51.078;12.108;2022-11-15T00:18:37;15.23;;;8.68;;
35699;SDS011;21818;51.078;12.108;2022-11-15T00:21:04;11.88;;;7.50;;
35699;SDS011;21818;51.078;12.108;2022-11-15T00:26:00;10.18;;;5.95;;
35699;SDS011;21818;51.078;12.108;2022-11-15T00:28:26;12.18;;;7.03;;
35699;SDS011;21818;51.078;12.108;2022-11-15T00:30:52;12.35;;;6.35;;
35699;SDS011;21818;51.078;12.108;2022-11-15T00:33:17;10.13;;;5.93;;
35699;SDS011;21818;51.078;12.108;2022-11-15T00:35:43;10.23;;;5.95;;
35699;SDS011;21818;51.078;12.108;2022-11-15T00:38:09;11.38;;;6.72;;
35699;SDS011;21818;51.078;12.108;2022-11-15T00:40:34;10.52;;;5.88;;
35699;SDS011;21818;51.078;12.108;2022-11-15T00:43:00;12.45;;;6.60;;
35699;SDS011;21818;51.078;12.108;2022-11-15T00:45:25;11.85;;;6.53;;
35699;SDS011;21818;51.078;12.108;2022-11-15T00:47:51;12.25;;;6.28;;
35699;SDS011;21818;51.078;12.108;2022-11-15T00:50:17;13.23;;;7.05;;
35699;SDS011;21818;51.078;12.108;2022-11-15T00:52:43;14.38;;;6.70;;
35699;SDS011;21818;51.078;12.108;2022-11-15T00:55:13;9.20;;;6.15;;
35699;SDS011;21818;51.078;12.108;2022-11-15T00:57:40;10.98;;;6.30;;
35699;SDS011;21818;51.078;12.108;2022-11-15T01:00:06;9.05;;;5.85;;
35699;SDS011;21818;51.078;12.108;2022-11-15T01:02:32;10.77;;;6.90;;
35699;SDS011;21818;51.078;12.108;2022-11-15T01:04:58;10.85;;;6.28;;
35699;SDS011;21818;51.078;12.108;2022-11-15T01:07:23;8.80;;;5.75;;
35699;SDS011;21818;51.078;12.108;2022-11-15T01:09:49;9.25;;;6.05;;
35699;SDS011;21818;51.078;12.108;2022-11-15T01:12:14;10.07;;;5.53;;
35699;SDS011;21818;51.078;12.108;2022-11-15T01:14:40;9.68;;;6.22;;
35699;SDS011;21818;51.078;12.108;2022-11-15T01:17:05;10.05;;;5.65;;
35699;SDS011;21818;51.078;12.108;2022-11-15T01:19:31;10.07;;;6.05;;
35699;SDS011;21818;51.078;12.108;2022-11-15T01:21:57;12.45;;;6.30;;
35699;SDS011;21818;51.078;12.108;2022-11-15T01:24:22;9.57;;;5.78;;
35699;SDS011;21818;51.078;12.108;2022-11-15T01:26:48;11.20;;;6.80;;
35699;SDS011;21818;51.078;12.108;2022-11-15T01:29:13;11.48;;;6.63;;
35699;SDS011;21818;51.078;12.108;2022-11-15T01:31:39;10.13;;;6.00;;
35699;SDS011;21818;51.078;12.108;2022-11-15T01:34:05;9.43;;;5.43;;
35699;SDS011;21818;51.078;12.108;2022-11-15T01:36:30;10.70;;;6.95;;
35699;SDS011;21818;51.078;12.108;2022-11-15T01:38:57;12.27;;;6.13;;
35699;SDS011;21818;51.078;12.108;2022-11-15T01:41:25;11.77;;;7.18;;
35699;SDS011;21818;51.078;12.108;2022-11-15T01:43:57;8.83;;;5.90;;
35699;SDS011;21818;51.078;12.108;2022-11-15T01:46:58;12.13;;;6.57;;
35699;SDS011;21818;51.078;12.108;2022-11-15T01:49:26;11.95;;;6.40;;
35699;SDS011;21818;51.078;12.108;2022-11-15T01:51:54;11.45;;;6.00;;
35699;SDS011;21818;51.078;12.108;2022-11-15T01:54:21;9.60;;;6.18;;
35699;SDS011;21818;51.078;12.108;2022-11-15T01:56:52;9.82;;;6.05;;
35699;SDS011;21818;51.078;12.108;2022-11-15T01:59:22;10.23;;;5.85;;
35699;SDS011;21818;51.078;12.108;2022-11-15T02:01:48;11.70;;;6.05;;
35699;SDS011;21818;51.078;12.108;2022-11-15T02:04:22;12.38;;;6.45;;
35699;SDS011;21818;51.078;12.108;2022-11-15T02:07:01;10.38;;;6.45;;
35699;SDS011;21818;51.078;12.108;2022-11-15T02:09:29;9.65;;;6.35;;
35699;SDS011;21818;51.078;12.108;2022-11-15T02:11:55;13.20;;;7.32;;
35699;SDS011;21818;51.078;12.108;2022-11-15T02:14:21;10.32;;;6.20;;
35699;SDS011;21818;51.078;12.108;2022-11-15T02:16:54;11.48;;;6.82;;
35699;SDS011;21818;51.078;12.108;2022-11-15T02:40:53;12.18;;;6.38;;
35699;SDS011;21818;51.078;12.108;2022-11-15T02:43:38;9.90;;;5.75;;
35699;SDS011;21818;51.078;12.108;2022-11-15T02:49:19;9.93;;;5.60;;
35699;SDS011;21818;51.078;12.108;2022-11-15T02:51:46;12.50;;;6.32;;
35699;SDS011;21818;51.078;12.108;2022-11-15T02:54:15;11.10;;;6.00;;
35699;SDS011;21818;51.078;12.108;2022-11-15T02:56:47;9.55;;;6.18;;
35699;SDS011;21818;51.078;12.108;2022-11-15T02:59:18;8.20;;;4.70;;
35699;SDS011;21818;51.078;12.108;2022-11-15T03:04:53;8.80;;;5.22;;
35699;SDS011;21818;51.078;12.108;2022-11-15T03:10:12;8.75;;;5.07;;
35699;SDS011;21818;51.078;12.108;2022-11-15T03:12:48;11.52;;;5.13;;
35699;SDS011;21818;51.078;12.108;2022-11-15T03:15:29;7.90;;;5.40;;
35699;SDS011;21818;51.078;12.108;2022-11-15T03:18:04;7.88;;;5.25;;
35699;SDS011;21818;51.078;12.108;2022-11-15T03:20:42;9.40;;;5.45;;
35699;SDS011;21818;51.078;12.108;2022-11-15T03:23:10;9.32;;;5.20;;
35699;SDS011;21818;51.078;12.108;2022-11-15T03:25:38;8.07;;;5.15;;
35699;SDS011;21818;51.078;12.108;2022-11-15T03:28:08;8.73;;;5.40;;
35699;SDS011;21818;51.078;12.108;2022-11-15T03:30:37;7.40;;;4.70;;
35699;SDS011;21818;51.078;12.108;2022-11-15T03:33:04;8.23;;;5.28;;
35699;SDS011;21818;51.078;12.108;2022-11-15T03:35:33;7.40;;;4.57;;
35699;SDS011;21818;51.078;12.108;2022-11-15T03:40:53;8.30;;;4.80;;
35699;SDS011;21818;51.078;12.108;2022-11-15T03:46:07;9.50;;;5.00;;
35699;SDS011;21818;51.078;12.108;2022-11-15T03:48:40;8.40;;;4.68;;
35699;SDS011;21818;51.078;12.108;2022-11-15T03:51:30;7.90;;;4.32;;
35699;SDS011;21818;51.078;12.108;2022-11-15T03:53:56;9.60;;;4.78;;
35699;SDS011;21818;51.078;12.108;2022-11-15T03:56:22;10.70;;;5.13;;
35699;SDS011;21818;51.078;12.108;2022-11-15T03:58:47;9.30;;;4.75;;
35699;SDS011;21818;51.078;12.108;2022-11-15T04:01:13;5.47;;;4.22;;
35699;SDS011;21818;51.078;12.108;2022-11-15T04:03:38;7.30;;;4.65;;
35699;SDS011;21818;51.078;12.108;2022-11-15T04:06:04;8.18;;;4.53;;
35699;SDS011;21818;51.078;12.108;2022-11-15T04:08:30;8.90;;;4.47;;
35699;SDS011;21818;51.078;12.108;2022-11-15T04:10:55;7.22;;;4.35;;
35699;SDS011;21818;51.078;12.108;2022-11-15T04:13:21;9.45;;;4.45;;
35699;SDS011;21818;51.078;12.108;2022-11-15T04:15:47;7.40;;;4.53;;
35699;SDS011;21818;51.078;12.108;2022-11-15T04:18:12;6.70;;;4.32;;
35699;SDS011;21818;51.078;12.108;2022-11-15T04:20:38;6.25;;;3.67;;
35699;SDS011;21818;51.078;12.108;2022-11-15T04:23:22;8.15;;;4.32;;
35699;SDS011;21818;51.078;12.108;2022-11-15T04:26:15;6.78;;;3.90;;
35699;SDS011;21818;51.078;12.108;2022-11-15T04:28:43;8.52;;;4.70;;
35699;SDS011;21818;51.078;12.108;2022-11-15T04:31:27;7.53;;;4.07;;
35699;SDS011;21818;51.078;12.108;2022-11-15T04:33:53;5.93;;;4.03;;
35699;SDS011;21818;51.078;12.108;2022-11-15T04:36:19;8.07;;;4.57;;
35699;SDS011;21818;51.078;12.108;2022-11-15T04:39:03;8.80;;;3.80;;
35699;SDS011;21818;51.078;12.108;2022-11-15T04:41:29;7.72;;;3.72;;
35699;SDS011;21818;51.078;12.108;2022-11-15T04:43:55;8.07;;;4.30;;
35699;SDS011;21818;51.078;12.108;2022-11-15T04:46:21;6.53;;;4.10;;
35699;SDS011;21818;51.078;12.108;2022-11-15T04:48:47;7.85;;;4.18;;
35699;SDS011;21818;51.078;12.108;2022-11-15T04:51:13;6.75;;;3.88;;
35699;SDS011;21818;51.078;12.108;2022-11-15T04:53:38;7.50;;;4.30;;
35699;SDS011;21818;51.078;12.108;2022-11-15T04:56:04;6.88;;;3.55;;
35699;SDS011;21818;51.078;12.108;2022-11-15T04:58:30;7.82;;;3.72;;
35699;SDS011;21818;51.078;12.108;2022-11-15T05:00:55;7.05;;;4.07;;
35699;SDS011;21818;51.078;12.108;2022-11-15T05:03:21;6.32;;;4.22;;
35699;SDS011;21818;51.078;12.108;2022-11-15T05:06:05;6.15;;;3.80;;
35699;SDS011;21818;51.078;12.108;2022-11-15T05:08:31;4.97;;;3.83;;
35699;SDS011;21818;51.078;12.108;2022-11-15T05:10:57;5.88;;;4.03;;
35699;SDS011;21818;51.078;12.108;2022-11-15T05:13:23;5.85;;;3.95;;
35699;SDS011;21818;51.078;12.108;2022-11-15T05:15:48;6.30;;;4.00;;
35699;SDS011;21818;51.078;12.108;2022-11-15T05:18:14;7.82;;;3.92;;
35699;SDS011;21818;51.078;12.108;2022-11-15T05:20:40;6.45;;;3.78;;
35699;SDS011;21818;51.078;12.108;2022-11-15T05:23:05;8.32;;;3.95;;
35699;SDS011;21818;51.078;12.108;2022-11-15T05:25:31;6.82;;;4.15;;
35699;SDS011;21818;51.078;12.108;2022-11-15T05:27:57;6.53;;;4.00;;
35699;SDS011;21818;51.078;12.108;2022-11-15T05:30:22;7.95;;;4.65;;
35699;SDS011;21818;51.078;12.108;2022-11-15T05:32:48;10.38;;;4.60;;
35699;SDS011;21818;51.078;12.108;2022-11-15T05:35:18;11.18;;;4.68;;
35699;SDS011;21818;51.078;12.108;2022-11-15T05:37:52;7.85;;;4.20;;
35699;SDS011;21818;51.078;12.108;2022-11-15T05:40:17;7.88;;;4.55;;
35699;SDS011;21818;51.078;12.108;2022-11-15T05:42:43;10.40;;;4.47;;
35699;SDS011;21818;51.078;12.108;2022-11-15T05:45:10;7.43;;;4.20;;
35699;SDS011;21818;51.078;12.108;2022-11-15T05:47:36;10.38;;;4.70;;
35699;SDS011;21818;51.078;12.108;2022-11-15T05:50:04;10.15;;;4.78;;
35699;SDS011;21818;51.078;12.108;2022-11-15T05:52:30;8.90;;;5.18;;
35699;SDS011;21818;51.078;12.108;2022-11-15T05:54:59;11.75;;;5.68;;
35699;SDS011;21818;51.078;12.108;2022-11-15T05:57:25;8.27;;;4.82;;
35699;SDS011;21818;51.078;12.108;2022-11-15T05:59:50;9.93;;;4.90;;
35699;SDS011;21818;51.078;12.108;2022-11-15T06:02:16;9.20;;;5.50;;
35699;SDS011;21818;51.078;12.108;2022-11-15T06:04:42;10.02;;;5.13;;
35699;SDS011;21818;51.078;12.108;2022-11-15T06:07:07;9.32;;;4.72;;
35699;SDS011;21818;51.078;12.108;2022-11-15T06:09:33;8.13;;;4.72;;
35699;SDS011;21818;51.078;12.108;2022-11-15T06:11:58;7.88;;;4.70;;
35699;SDS011;21818;51.078;12.108;2022-11-15T06:14:24;7.90;;;5.00;;
35699;SDS011;21818;51.078;12.108;2022-11-15T06:16:50;6.85;;;4.45;;
35699;SDS011;21818;51.078;12.108;2022-11-15T06:19:15;8.50;;;4.38;;
35699;SDS011;21818;51.078;12.108;2022-11-15T06:21:41;7.70;;;4.05;;
35699;SDS011;21818;51.078;12.108;2022-11-15T06:24:07;6.78;;;4.30;;
35699;SDS011;21818;51.078;12.108;2022-11-15T06:26:32;7.43;;;4.10;;
35699;SDS011;21818;51.078;12.108;2022-11-15T06:28:58;8.38;;;4.40;;
35699;SDS011;21818;51.078;12.108;2022-11-15T06:31:24;9.85;;;4.93;;
35699;SDS011;21818;51.078;12.108;2022-11-15T06:33:49;9.45;;;4.00;;
35699;SDS011;21818;51.078;12.108;2022-11-15T06:36:15;10.18;;;4.60;;
35699;SDS011;21818;51.078;12.108;2022-11-15T06:38:42;7.85;;;4.40;;
35699;SDS011;21818;51.078;12.108;2022-11-15T06:41:09;7.97;;;3.70;;
35699;SDS011;21818;51.078;12.108;2022-11-15T06:43:36;7.85;;;4.25;;
35699;SDS011;21818;51.078;12.108;2022-11-15T06:46:03;8.40;;;3.88;;
35699;SDS011;21818;51.078;12.108;2022-11-15T06:48:30;7.38;;;4.05;;
35699;SDS011;21818;51.078;12.108;2022-11-15T06:50:58;5.70;;;3.85;;
35699;SDS011;21818;51.078;12.108;2022-11-15T06:53:25;6.57;;;3.88;;
35699;SDS011;21818;51.078;12.108;2022-11-15T06:55:51;7.10;;;4.32;;
35699;SDS011;21818;51.078;12.108;2022-11-15T06:58:17;6.95;;;4.57;;
35699;SDS011;21818;51.078;12.108;2022-11-15T07:00:43;12.60;;;4.63;;
35699;SDS011;21818;51.078;12.108;2022-11-15T07:03:08;7.10;;;3.63;;
35699;SDS011;21818;51.078;12.108;2022-11-15T07:05:35;6.85;;;3.78;;
35699;SDS011;21818;51.078;12.108;2022-11-15T07:08:01;9.85;;;3.97;;
35699;SDS011;21818;51.078;12.108;2022-11-15T07:10:27;7.63;;;3.55;;
35699;SDS011;21818;51.078;12.108;2022-11-15T07:12:54;8.38;;;3.83;;
35699;SDS011;21818;51.078;12.108;2022-11-15T07:15:21;9.40;;;3.58;;
35699;SDS011;21818;51.078;12.108;2022-11-15T07:17:48;6.80;;;3.38;;
35699;SDS011;21818;51.078;12.108;2022-11-15T07:20:14;6.13;;;3.40;;
35699;SDS011;21818;51.078;12.108;2022-11-15T07:22:40;4.93;;;3.03;;
35699;SDS011;21818;51.078;12.108;2022-11-15T07:25:07;5.97;;;3.22;;
35699;SDS011;21818;51.078;12.108;2022-11-15T07:27:33;7.15;;;3.95;;
35699;SDS011;21818;51.078;12.108;2022-11-15T07:29:59;5.82;;;3.28;;
35699;SDS011;21818;51.078;12.108;2022-11-15T07:32:25;6.30;;;3.55;;
35699;SDS011;21818;51.078;12.108;2022-11-15T07:34:51;6.05;;;3.47;;
35699;SDS011;21818;51.078;12.108;2022-11-15T07:37:16;7.47;;;3.60;;
35699;SDS011;21818;51.078;12.108;2022-11-15T07:39:42;5.57;;;3.28;;
35699;SDS011;21818;51.078;12.108;2022-11-15T07:42:08;6.50;;;3.60;;
35699;SDS011;21818;51.078;12.108;2022-11-15T07:44:52;6.53;;;3.50;;
35699;SDS011;21818;51.078;12.108;2022-11-15T07:47:18;7.85;;;3.38;;
35699;SDS011;21818;51.078;12.108;2022-11-15T07:49:43;6.22;;;3.13;;
35699;SDS011;21818;51.078;12.108;2022-11-15T07:52:10;5.00;;;3.28;;
35699;SDS011;21818;51.078;12.108;2022-11-15T07:54:36;6.72;;;3.00;;
35699;SDS011;21818;51.078;12.108;2022-11-15T07:57:02;6.20;;;3.80;;
35699;SDS011;21818;51.078;12.108;2022-11-15T07:59:28;7.57;;;3.60;;
35699;SDS011;21818;51.078;12.108;2022-11-15T08:01:53;6.72;;;3.63;;
35699;SDS011;21818;51.078;12.108;2022-11-15T08:04:19;4.53;;;3.45;;
35699;SDS011;21818;51.078;12.108;2022-11-15T08:06:45;6.20;;;3.33;;
35699;SDS011;21818;51.078;12.108;2022-11-15T08:09:11;5.40;;;2.85;;
35699;SDS011;21818;51.078;12.108;2022-11-15T08:11:36;7.97;;;3.53;;
35699;SDS011;21818;51.078;12.108;2022-11-15T08:14:02;9.07;;;3.67;;
35699;SDS011;21818;51.078;12.108;2022-11-15T08:16:28;6.30;;;3.40;;
35699;SDS011;21818;51.078;12.108;2022-11-15T08:18:54;6.38;;;3.05;;
35699;SDS011;21818;51.078;12.108;2022-11-15T08:21:20;6.00;;;2.92;;
35699;SDS011;21818;51.078;12.108;2022-11-15T08:23:45;7.15;;;3.20;;
35699;SDS011;21818;51.078;12.108;2022-11-15T08:26:11;5.53;;;3.10;;
35699;SDS011;21818;51.078;12.108;2022-11-15T08:28:37;6.93;;;2.90;;
35699;SDS011;21818;51.078;12.108;2022-11-15T08:31:03;6.55;;;2.75;;
35699;SDS011;21818;51.078;12.108;2022-11-15T08:33:30;6.07;;;3.10;;
35699;SDS011;21818;51.078;12.108;2022-11-15T08:35:57;5.05;;;2.40;;
35699;SDS011;21818;51.078;12.108;2022-11-15T08:38:24;4.18;;;2.55;;
35699;SDS011;21818;51.078;12.108;2022-11-15T08:40:51;3.70;;;2.50;;
35699;SDS011;21818;51.078;12.108;2022-11-15T08:43:18;4.57;;;2.53;;
35699;SDS011;21818;51.078;12.108;2022-11-15T08:45:44;3.15;;;2.25;;
35699;SDS011;21818;51.078;12.108;2022-11-15T08:48:10;6.85;;;2.72;;
35699;SDS011;21818;51.078;12.108;2022-11-15T08:50:35;4.03;;;2.88;;
35699;SDS011;21818;51.078;12.108;2022-11-15T08:53:05;6.07;;;3.10;;
35699;SDS011;21818;51.078;12.108;2022-11-15T08:55:37;6.20;;;3.75;;
35699;SDS011;21818;51.078;12.108;2022-11-15T08:58:04;9.35;;;4.03;;
35699;SDS011;21818;51.078;12.108;2022-11-15T09:00:29;7.07;;;3.22;;
35699;SDS011;21818;51.078;12.108;2022-11-15T09:02:55;8.25;;;4.07;;
35699;SDS011;21818;51.078;12.108;2022-11-15T09:05:20;7.18;;;4.00;;
35699;SDS011;21818;51.078;12.108;2022-11-15T09:07:46;6.80;;;3.92;;
35699;SDS011;21818;51.078;12.108;2022-11-15T09:10:12;6.47;;;3.33;;
35699;SDS011;21818;51.078;12.108;2022-11-15T09:12:37;5.88;;;3.15;;
35699;SDS011;21818;51.078;12.108;2022-11-15T09:15:03;6.22;;;3.20;;
35699;SDS011;21818;51.078;12.108;2022-11-15T09:17:30;6.32;;;3.30;;
35699;SDS011;21818;51.078;12.108;2022-11-15T09:19:56;5.30;;;3.00;;
35699;SDS011;21818;51.078;12.108;2022-11-15T09:22:21;5.70;;;2.90;;
35699;SDS011;21818;51.078;12.108;2022-11-15T09:24:47;6.82;;;3.42;;
35699;SDS011;21818;51.078;12.108;2022-11-15T09:27:12;6.05;;;3.50;;
35699;SDS011;21818;51.078;12.108;2022-11-15T09:29:38;5.18;;;3.00;;
35699;SDS011;21818;51.078;12.108;2022-11-15T09:32:04;7.43;;;3.15;;
35699;SDS011;21818;51.078;12.108;2022-11-15T09:34:30;4.32;;;2.70;;
35699;SDS011;21818;51.078;12.108;2022-11-15T09:36:55;4.47;;;2.80;;
35699;SDS011;21818;51.078;12.108;2022-11-15T09:39:21;5.57;;;3.28;;
35699;SDS011;21818;51.078;12.108;2022-11-15T09:50:12;4.10;;;2.67;;
35699;SDS011;21818;51.078;12.108;2022-11-15T09:52:41;3.90;;;2.90;;
35699;SDS011;21818;51.078;12.108;2022-11-15T09:55:10;3.60;;;2.25;;
35699;SDS011;21818;51.078;12.108;2022-11-15T10:00:35;4.55;;;2.95;;
35699;SDS011;21818;51.078;12.108;2022-11-15T10:03:16;6.47;;;3.17;;
35699;SDS011;21818;51.078;12.108;2022-11-15T10:05:46;4.03;;;2.67;;
35699;SDS011;21818;51.078;12.108;2022-11-15T10:10:56;4.60;;;3.55;;
35699;SDS011;21818;51.078;12.108;2022-11-15T10:13:29;5.32;;;4.10;;
35699;SDS011;21818;51.078;12.108;2022-11-15T10:16:04;5.72;;;4.15;;
35699;SDS011;21818;51.078;12.108;2022-11-15T10:19:00;4.78;;;3.17;;
35699;SDS011;21818;51.078;12.108;2022-11-15T10:24:12;6.32;;;3.15;;
35699;SDS011;21818;51.078;12.108;2022-11-15T10:26:46;3.85;;;2.65;;
35699;SDS011;21818;51.078;12.108;2022-11-15T10:29:17;5.53;;;3.72;;
35699;SDS011;21818;51.078;12.108;2022-11-15T10:31:47;7.13;;;3.97;;
35699;SDS011;21818;51.078;12.108;2022-11-15T10:34:15;6.22;;;3.58;;
35699;SDS011;21818;51.078;12.108;2022-11-15T10:36:45;6.00;;;3.13;;
35699;SDS011;21818;51.078;12.108;2022-11-15T10:39:24;6.57;;;2.97;;
35699;SDS011;21818;51.078;12.108;2022-11-15T10:41:51;4.70;;;3.47;;
35699;SDS011;21818;51.078;12.108;2022-11-15T10:46:44;8.65;;;3.90;;
35699;SDS011;21818;51.078;12.108;2022-11-15T10:51:53;6.82;;;3.83;;
35699;SDS011;21818;51.078;12.108;2022-11-15T10:54:45;7.00;;;4.15;;
35699;SDS011;21818;51.078;12.108;2022-11-15T10:57:25;4.75;;;3.65;;
35699;SDS011;21818;51.078;12.108;2022-11-15T11:00:36;5.20;;;3.15;;
35699;SDS011;21818;51.078;12.108;2022-11-15T11:05:30;7.18;;;3.15;;
35699;SDS011;21818;51.078;12.108;2022-11-15T11:10:30;5.50;;;3.47;;
35699;SDS011;21818;51.078;12.108;2022-11-15T11:15:47;4.03;;;2.60;;
35699;SDS011;21818;51.078;12.108;2022-11-15T11:18:38;5.45;;;2.80;;
35699;SDS011;21818;51.078;12.108;2022-11-15T11:21:09;7.00;;;2.90;;
35699;SDS011;21818;51.078;12.108;2022-11-15T11:23:44;5.57;;;2.90;;
35699;SDS011;21818;51.078;12.108;2022-11-15T11:36:49;3.38;;;2.50;;
35699;SDS011;21818;51.078;12.108;2022-11-15T11:50:50;4.78;;;2.60;;
35699;SDS011;21818;51.078;12.108;2022-11-15T11:53:25;6.28;;;2.60;;
35699;SDS011;21818;51.078;12.108;2022-11-15T11:56:19;3.85;;;2.47;;
35699;SDS011;21818;51.078;12.108;2022-11-15T11:58:47;4.18;;;2.35;;
35699;SDS011;21818;51.078;12.108;2022-11-15T12:01:34;4.07;;;2.50;;
35699;SDS011;21818;51.078;12.108;2022-11-15T12:07:00;4.00;;;2.63;;
35699;SDS011;21818;51.078;12.108;2022-11-15T12:09:41;4.43;;;2.38;;
35699;SDS011;21818;51.078;12.108;2022-11-15T12:12:11;4.30;;;2.72;;
35699;SDS011;21818;51.078;12.108;2022-11-15T12:17:24;4.65;;;2.35;;
35699;SDS011;21818;51.078;12.108;2022-11-15T12:19:56;4.82;;;2.58;;
35699;SDS011;21818;51.078;12.108;2022-11-15T12:25:04;5.55;;;2.90;;
35699;SDS011;21818;51.078;12.108;2022-11-15T12:27:43;4.85;;;2.58;;
35699;SDS011;21818;51.078;12.108;2022-11-15T12:30:46;4.22;;;2.78;;
35699;SDS011;21818;51.078;12.108;2022-11-15T12:33:36;4.55;;;2.67;;
35699;SDS011;21818;51.078;12.108;2022-11-15T12:36:08;3.90;;;2.45;;
35699;SDS011;21818;51.078;12.108;2022-11-15T12:41:20;4.38;;;2.70;;
35699;SDS011;21818;51.078;12.108;2022-11-15T12:43:48;4.82;;;2.58;;
35699;SDS011;21818;51.078;12.108;2022-11-15T12:48:49;4.07;;;2.15;;
35699;SDS011;21818;51.078;12.108;2022-11-15T13:02:35;4.90;;;2.30;;
35699;SDS011;21818;51.078;12.108;2022-11-15T13:17:54;4.70;;;2.10;;
35699;SDS011;21818;51.078;12.108;2022-11-15T13:22:53;2.75;;;1.73;;
35699;SDS011;21818;51.078;12.108;2022-11-15T13:33:51;10.23;;;2.45;;
35699;SDS011;21818;51.078;12.108;2022-11-15T13:36:26;5.10;;;2.10;;
35699;SDS011;21818;51.078;12.108;2022-11-15T13:39:04;6.78;;;2.03;;
35699;SDS011;21818;51.078;12.108;2022-11-15T13:41:50;7.25;;;2.22;;
35699;SDS011;21818;51.078;12.108;2022-11-15T13:44:23;9.05;;;2.20;;
35699;SDS011;21818;51.078;12.108;2022-11-15T13:47:02;7.05;;;1.95;;
35699;SDS011;21818;51.078;12.108;2022-11-15T13:49:37;12.18;;;2.15;;
35699;SDS011;21818;51.078;12.108;2022-11-15T13:52:04;8.77;;;2.15;;
35699;SDS011;21818;51.078;12.108;2022-11-15T13:57:12;8.70;;;2.38;;
35699;SDS011;21818;51.078;12.108;2022-11-15T13:59:49;5.72;;;1.77;;
35699;SDS011;21818;51.078;12.108;2022-11-15T14:02:21;6.53;;;2.15;;
35699;SDS011;21818;51.078;12.108;2022-11-15T14:04:56;7.30;;;2.10;;
35699;SDS011;21818;51.078;12.108;2022-11-15T14:07:24;5.72;;;2.22;;
35699;SDS011;21818;51.078;12.108;2022-11-15T14:09:52;8.25;;;2.47;;
35699;SDS011;21818;51.078;12.108;2022-11-15T14:12:26;6.28;;;2.10;;
35699;SDS011;21818;51.078;12.108;2022-11-15T14:14:54;9.05;;;2.22;;
35699;SDS011;21818;51.078;12.108;2022-11-15T14:19:58;6.53;;;1.90;;
35699;SDS011;21818;51.078;12.108;2022-11-15T14:22:30;3.60;;;2.00;;
35699;SDS011;21818;51.078;12.108;2022-11-15T14:27:38;12.35;;;2.78;;
35699;SDS011;21818;51.078;12.108;2022-11-15T14:30:04;5.13;;;2.15;;
35699;SDS011;21818;51.078;12.108;2022-11-15T14:32:49;5.18;;;2.45;;
35699;SDS011;21818;51.078;12.108;2022-11-15T14:35:17;4.72;;;1.98;;
35699;SDS011;21818;51.078;12.108;2022-11-15T14:37:45;4.43;;;1.95;;
35699;SDS011;21818;51.078;12.108;2022-11-15T14:40:13;4.43;;;2.72;;
35699;SDS011;21818;51.078;12.108;2022-11-15T14:42:40;4.57;;;2.15;;
35699;SDS011;21818;51.078;12.108;2022-11-15T14:45:16;4.03;;;2.38;;
35699;SDS011;21818;51.078;12.108;2022-11-15T14:47:44;7.20;;;3.00;;
35699;SDS011;21818;51.078;12.108;2022-11-15T14:50:17;5.30;;;3.08;;
35699;SDS011;21818;51.078;12.108;2022-11-15T14:52:45;9.73;;;4.63;;
35699;SDS011;21818;51.078;12.108;2022-11-15T14:57:48;13.15;;;6.30;;
35699;SDS011;21818;51.078;12.108;2022-11-15T15:00:14;8.05;;;4.55;;
35699;SDS011;21818;51.078;12.108;2022-11-15T15:02:41;10.60;;;5.95;;
35699;SDS011;21818;51.078;12.108;2022-11-15T15:05:15;9.10;;;4.90;;
35699;SDS011;21818;51.078;12.108;2022-11-15T15:07:43;11.30;;;8.52;;
35699;SDS011;21818;51.078;12.108;2022-11-15T15:10:09;19.27;;;9.60;;
35699;SDS011;21818;51.078;12.108;2022-11-15T15:12:35;7.78;;;4.10;;
35699;SDS011;21818;51.078;12.108;2022-11-15T15:15:00;9.63;;;5.45;;
35699;SDS011;21818;51.078;12.108;2022-11-15T15:17:26;7.80;;;4.03;;
35699;SDS011;21818;51.078;12.108;2022-11-15T15:19:52;7.63;;;3.78;;
35699;SDS011;21818;51.078;12.108;2022-11-15T15:22:18;6.13;;;3.80;;
35699;SDS011;21818;51.078;12.108;2022-11-15T15:24:46;9.18;;;4.80;;
35699;SDS011;21818;51.078;12.108;2022-11-15T15:27:12;5.95;;;3.15;;
35699;SDS011;21818;51.078;12.108;2022-11-15T15:29:38;7.75;;;2.88;;
35699;SDS011;21818;51.078;12.108;2022-11-15T15:32:04;7.93;;;5.63;;
35699;SDS011;21818;51.078;12.108;2022-11-15T15:34:30;4.60;;;2.97;;
35699;SDS011;21818;51.078;12.108;2022-11-15T15:39:49;14.15;;;7.65;;
35699;SDS011;21818;51.078;12.108;2022-11-15T15:42:16;5.35;;;3.15;;
35699;SDS011;21818;51.078;12.108;2022-11-15T15:44:42;8.93;;;3.58;;
35699;SDS011;21818;51.078;12.108;2022-11-15T15:47:10;17.23;;;5.85;;
35699;SDS011;21818;51.078;12.108;2022-11-15T15:49:47;16.60;;;4.30;;
35699;SDS011;21818;51.078;12.108;2022-11-15T15:52:13;22.35;;;11.20;;
35699;SDS011;21818;51.078;12.108;2022-11-15T15:54:39;11.93;;;5.63;;
35699;SDS011;21818;51.078;12.108;2022-11-15T15:57:06;13.35;;;4.60;;
35699;SDS011;21818;51.078;12.108;2022-11-15T15:59:32;10.55;;;4.60;;
35699;SDS011;21818;51.078;12.108;2022-11-15T16:01:58;11.30;;;4.03;;
35699;SDS011;21818;51.078;12.108;2022-11-15T16:04:24;10.30;;;4.10;;
35699;SDS011;21818;51.078;12.108;2022-11-15T16:06:50;8.13;;;3.70;;
35699;SDS011;21818;51.078;12.108;2022-11-15T16:09:19;8.73;;;3.58;;
35699;SDS011;21818;51.078;12.108;2022-11-15T16:12:05;8.48;;;4.28;;
35699;SDS011;21818;51.078;12.108;2022-11-15T16:14:31;7.60;;;3.90;;
35699;SDS011;21818;51.078;12.108;2022-11-15T16:16:57;8.60;;;3.75;;
35699;SDS011;21818;51.078;12.108;2022-11-15T16:19:23;8.55;;;3.85;;
35699;SDS011;21818;51.078;12.108;2022-11-15T16:21:48;7.07;;;3.80;;
35699;SDS011;21818;51.078;12.108;2022-11-15T16:24:14;13.73;;;5.57;;
35699;SDS011;21818;51.078;12.108;2022-11-15T16:26:40;88.63;;;38.05;;
35699;SDS011;21818;51.078;12.108;2022-11-15T16:29:05;59.05;;;28.20;;
35699;SDS011;21818;51.078;12.108;2022-11-15T16:31:34;88.25;;;40.10;;
35699;SDS011;21818;51.078;12.108;2022-11-15T16:33:59;137.10;;;60.03;;
35699;SDS011;21818;51.078;12.108;2022-11-15T16:36:25;100.20;;;45.83;;
35699;SDS011;21818;51.078;12.108;2022-11-15T16:38:52;56.58;;;29.77;;
35699;SDS011;21818;51.078;12.108;2022-11-15T16:41:18;29.45;;;16.60;;
35699;SDS011;21818;51.078;12.108;2022-11-15T16:43:47;23.98;;;13.18;;
35699;SDS011;21818;51.078;12.108;2022-11-15T16:46:15;18.73;;;10.13;;
35699;SDS011;21818;51.078;12.108;2022-11-15T16:48:52;21.40;;;11.02;;
35699;SDS011;21818;51.078;12.108;2022-11-15T16:51:18;21.55;;;10.88;;
35699;SDS011;21818;51.078;12.108;2022-11-15T16:53:44;19.75;;;10.27;;
35699;SDS011;21818;51.078;12.108;2022-11-15T16:56:16;15.43;;;8.07;;
35699;SDS011;21818;51.078;12.108;2022-11-15T16:58:51;17.33;;;9.15;;
35699;SDS011;21818;51.078;12.108;2022-11-15T17:01:22;17.35;;;8.82;;
35699;SDS011;21818;51.078;12.108;2022-11-15T17:03:50;20.92;;;10.32;;
35699;SDS011;21818;51.078;12.108;2022-11-15T17:06:16;20.67;;;9.38;;
35699;SDS011;21818;51.078;12.108;2022-11-15T17:08:45;17.23;;;9.02;;
35699;SDS011;21818;51.078;12.108;2022-11-15T17:11:15;19.92;;;9.93;;
35699;SDS011;21818;51.078;12.108;2022-11-15T17:13:45;17.60;;;9.68;;